createdAt,value
2023-03-10T00:01:38.439Z,1.79
2023-03-10T00:04:07.217Z,1.82
2023-03-10T00:06:39.399Z,1.84
2023-03-10T00:09:11.771Z,1.87
2023-03-10T00:11:48.936Z,1.89
2023-03-10T00:14:20.501Z,1.87
2023-03-10T00:16:52.161Z,1.79
2023-03-10T00:19:26.722Z,1.75
2023-03-10T00:22:02.212Z,1.71
2023-03-10T00:24:36.063Z,1.68
2023-03-10T00:27:06.136Z,1.66
2023-03-10T00:29:45.017Z,1.62
2023-03-10T00:32:16.866Z,1.57
2023-03-10T00:34:45.897Z,1.54
2023-03-10T00:37:16.319Z,1.51
2023-03-10T00:39:45.782Z,1.50
2023-03-10T00:42:15.158Z,1.48
2023-03-10T00:44:56.556Z,1.43
2023-03-10T00:47:27.766Z,1.40
2023-03-10T00:49:57.117Z,1.41
2023-03-10T00:52:28.768Z,1.44
2023-03-10T00:55:07.698Z,1.46
2023-03-10T00:57:43.014Z,1.50
2023-03-10T01:00:15.398Z,1.51
2023-03-10T01:02:45.297Z,1.49
2023-03-10T01:05:16.166Z,1.47
2023-03-10T01:07:45.022Z,1.41
2023-03-10T01:10:15.894Z,1.40
2023-03-10T01:12:44.595Z,1.40
2023-03-10T01:15:16.425Z,1.41
2023-03-10T01:17:47.466Z,1.42
2023-03-10T01:20:17.697Z,1.43
2023-03-10T01:22:46.665Z,1.41
2023-03-10T01:25:15.827Z,1.41
2023-03-10T01:27:44.682Z,1.43
2023-03-10T01:30:16.347Z,1.46
2023-03-10T01:32:49.385Z,1.49
2023-03-10T01:35:18.133Z,1.54
2023-03-10T01:37:50.266Z,1.60
2023-03-10T01:40:22.071Z,1.61
2023-03-10T01:42:50.766Z,1.61
2023-03-10T01:45:21.733Z,1.63
2023-03-10T01:47:53.266Z,1.66
2023-03-10T01:50:23.197Z,1.69
2023-03-10T01:52:57.950Z,1.72
2023-03-10T01:55:41.110Z,1.78
2023-03-10T01:58:17.458Z,1.79
2023-03-10T02:00:54.383Z,1.81
2023-03-10T02:03:34.605Z,1.83
2023-03-10T02:06:10.893Z,1.84
2023-03-10T02:09:01.681Z,1.86
2023-03-10T02:11:30.553Z,1.89
2023-03-10T02:14:04.163Z,1.91
2023-03-10T02:16:37.363Z,1.92
2023-03-10T02:19:11.909Z,1.93
2023-03-10T02:22:12.227Z,1.96
2023-03-10T02:25:58.402Z,2.00
2023-03-10T02:28:40.175Z,2.00
2023-03-10T02:31:10.816Z,2.04
2023-03-10T02:33:44.296Z,2.08
2023-03-10T02:36:27.177Z,2.12
2023-03-10T02:39:07.788Z,2.15
2023-03-10T02:41:44.298Z,2.17
2023-03-10T02:44:23.916Z,2.20
2023-03-10T02:46:52.644Z,2.23
2023-03-10T02:49:27.671Z,2.25
2023-03-10T02:51:59.463Z,2.29
2023-03-10T02:54:28.005Z,2.32
2023-03-10T02:56:59.874Z,2.27
2023-03-10T02:59:29.188Z,2.29
2023-03-10T03:01:59.063Z,2.33
2023-03-10T03:04:31.669Z,2.37
2023-03-10T03:07:06.858Z,2.38
2023-03-10T03:09:50.200Z,2.42
2023-03-10T03:12:21.102Z,2.46
2023-03-10T03:15:05.919Z,2.50
2023-03-10T03:17:41.854Z,2.53
2023-03-10T03:20:20.565Z,2.57
2023-03-10T03:22:50.421Z,2.59
2023-03-10T03:25:24.057Z,2.62
2023-03-10T03:27:55.844Z,2.65
2023-03-10T03:30:28.767Z,2.68
2023-03-10T03:33:05.725Z,2.71
2023-03-10T03:35:36.953Z,2.67
2023-03-10T03:38:11.301Z,2.69
2023-03-10T03:40:40.948Z,2.71
2023-03-10T03:43:12.679Z,2.76
2023-03-10T03:45:44.679Z,2.80
2023-03-10T03:48:17.140Z,2.81
2023-03-10T03:50:48.003Z,2.85
2023-03-10T03:53:24.897Z,2.88
2023-03-10T03:55:56.730Z,2.94
2023-03-10T03:58:26.525Z,2.99
2023-03-10T04:00:58.881Z,3.05
2023-03-10T04:03:35.282Z,3.10
2023-03-10T04:06:10.636Z,3.16
2023-03-10T04:08:40.103Z,3.20
2023-03-10T04:11:10.785Z,3.24
2023-03-10T04:13:44.241Z,3.28
2023-03-10T04:16:13.490Z,3.32
2023-03-10T04:18:54.739Z,3.35
2023-03-10T04:21:23.858Z,3.40
2023-03-10T04:23:53.678Z,3.47
2023-03-10T04:26:26.293Z,3.52
2023-03-10T04:29:01.178Z,3.60
2023-03-10T04:31:38.945Z,3.67
2023-03-10T04:34:10.374Z,3.71
2023-03-10T04:36:44.283Z,3.76
2023-03-10T04:39:16.180Z,3.82
2023-03-10T04:41:54.676Z,3.85
2023-03-10T04:44:31.809Z,3.86
2023-03-10T04:47:02.872Z,3.88
2023-03-10T04:49:34.318Z,3.89
2023-03-10T04:52:06.990Z,3.91
2023-03-10T04:54:47.063Z,3.92
2023-03-10T04:57:20.037Z,3.94
2023-03-10T04:59:51.088Z,3.97
2023-03-10T05:02:25.251Z,4.01
2023-03-10T05:04:56.504Z,4.06
2023-03-10T05:07:27.062Z,4.08
2023-03-10T05:10:02.252Z,4.08
2023-03-10T05:12:39.267Z,4.11
2023-03-10T05:15:11.833Z,4.14
2023-03-10T05:17:51.306Z,4.17
2023-03-10T05:20:20.796Z,4.13
2023-03-10T05:22:49.780Z,4.16
2023-03-10T05:25:29.818Z,4.22
2023-03-10T05:28:03.580Z,4.26
2023-03-10T05:30:32.488Z,4.32
2023-03-10T05:33:08.805Z,4.37
2023-03-10T05:35:39.023Z,4.40
2023-03-10T05:38:11.836Z,4.44
2023-03-10T05:40:44.283Z,4.48
2023-03-10T05:43:17.760Z,4.52
2023-03-10T05:45:58.593Z,4.54
2023-03-10T05:48:29.187Z,4.59
2023-03-10T05:51:07.953Z,4.64
2023-03-10T05:53:40.769Z,4.70
2023-03-10T05:56:22.794Z,4.75
2023-03-10T05:58:55.140Z,4.77
2023-03-10T06:01:30.785Z,4.81
2023-03-10T06:04:00.091Z,4.85
2023-03-10T06:06:33.210Z,4.90
2023-03-10T06:09:02.400Z,4.96
2023-03-10T06:11:35.941Z,5.02
2023-03-10T06:14:04.777Z,5.08
2023-03-10T06:16:33.341Z,5.15
2023-03-10T06:19:02.355Z,5.19
2023-03-10T06:21:39.542Z,5.24
2023-03-10T06:24:11.922Z,5.30
2023-03-10T06:26:45.925Z,5.37
2023-03-10T06:29:14.435Z,5.48
2023-03-10T06:31:43.065Z,5.55
2023-03-10T06:34:12.325Z,5.62
2023-03-10T06:36:41.265Z,5.69
2023-03-10T06:39:12.971Z,5.79
2023-03-10T06:41:41.408Z,5.90
2023-03-10T06:44:09.768Z,5.99
2023-03-10T06:46:38.952Z,6.08
2023-03-10T06:49:07.534Z,6.17
2023-03-10T06:51:36.172Z,6.28
2023-03-10T06:54:09.983Z,6.40
2023-03-10T06:56:39.313Z,6.52
2023-03-10T06:59:22.707Z,6.61
2023-03-10T07:01:58.364Z,6.67
2023-03-10T07:04:32.794Z,6.70
2023-03-10T07:07:09.073Z,6.72
2023-03-10T07:09:42.552Z,6.73
2023-03-10T07:12:12.859Z,6.77
2023-03-10T07:14:43.947Z,6.84
2023-03-10T07:17:14.513Z,6.92
2023-03-10T07:19:43.611Z,7.02
2023-03-10T07:22:14.512Z,7.14
2023-03-10T07:24:43.075Z,7.25
2023-03-10T07:27:13.745Z,7.33
2023-03-10T07:29:43.767Z,7.41
2023-03-10T07:32:12.506Z,7.48
2023-03-10T07:34:41.476Z,7.55
2023-03-10T07:37:13.546Z,7.61
2023-03-10T07:39:42.074Z,7.68
2023-03-10T07:42:10.888Z,7.77
2023-03-10T07:44:39.532Z,7.86
2023-03-10T07:47:11.785Z,7.90
2023-03-10T07:49:46.294Z,7.93
2023-03-10T07:52:18.633Z,7.98
2023-03-10T07:54:50.686Z,8.03
2023-03-10T07:57:22.460Z,8.09
2023-03-10T07:59:56.145Z,8.18
2023-03-10T08:02:24.806Z,8.27
2023-03-10T08:04:53.135Z,8.37
2023-03-10T08:07:22.279Z,8.44
2023-03-10T08:09:52.133Z,8.50
2023-03-10T08:12:36.782Z,8.55
2023-03-10T08:15:15.317Z,8.58
2023-03-10T08:17:49.956Z,8.64
2023-03-10T08:20:24.001Z,8.73
2023-03-10T08:23:02.675Z,8.81
2023-03-10T08:25:31.282Z,8.88
2023-03-10T08:28:02.521Z,8.99
2023-03-10T08:30:31.231Z,9.06
2023-03-10T08:32:59.707Z,9.10
2023-03-10T08:35:34.273Z,9.16
2023-03-10T08:38:05.504Z,9.26
2023-03-10T08:40:34.053Z,9.42
2023-03-10T08:43:02.631Z,9.60
2023-03-10T08:45:34.907Z,9.71
2023-03-10T08:48:09.803Z,9.73
2023-03-10T08:50:41.933Z,9.76
2023-03-10T08:53:12.484Z,9.79
2023-03-10T08:55:44.902Z,9.76
2023-03-10T08:58:13.153Z,9.76
2023-03-10T09:00:42.531Z,9.75
2023-03-10T09:03:11.656Z,9.76
2023-03-10T09:05:43.867Z,9.79
2023-03-10T09:08:19.172Z,9.84
2023-03-10T09:10:49.202Z,9.95
2023-03-10T09:13:21.862Z,10.06
2023-03-10T09:15:53.307Z,10.16
2023-03-10T09:18:22.475Z,10.24
2023-03-10T09:20:57.160Z,10.32
2023-03-10T09:23:29.492Z,10.44
2023-03-10T09:26:05.120Z,10.59
2023-03-10T09:28:41.283Z,10.77
2023-03-10T09:31:27.209Z,10.94
2023-03-10T09:34:05.548Z,11.00
2023-03-10T09:36:35.179Z,11.09
2023-03-10T09:39:27.471Z,11.20
2023-03-10T09:42:38.469Z,11.40
2023-03-10T09:45:48.005Z,11.51
2023-03-10T09:49:03.289Z,11.65
2023-03-10T09:51:43.885Z,11.78
2023-03-10T09:54:46.673Z,11.94
2023-03-10T09:57:23.633Z,12.09
2023-03-10T10:00:02.675Z,12.18
2023-03-10T10:02:47.407Z,12.16
2023-03-10T10:05:31.990Z,12.11
2023-03-10T10:08:21.944Z,12.07
2023-03-10T10:10:57.728Z,12.05
2023-03-10T10:13:36.028Z,12.03
2023-03-10T10:16:41.365Z,11.98
2023-03-10T10:19:22.303Z,11.91
2023-03-10T10:22:16.845Z,11.89
2023-03-10T10:25:14.723Z,11.88
2023-03-10T10:27:47.510Z,11.90
2023-03-10T10:30:42.361Z,11.91
2023-03-10T10:33:16.026Z,11.86
2023-03-10T10:36:06.819Z,11.87
2023-03-10T10:38:50.258Z,11.90
2023-03-10T10:41:40.394Z,11.93
2023-03-10T10:44:18.547Z,11.95
2023-03-10T10:47:02.278Z,11.96
2023-03-10T10:49:41.879Z,12.02
2023-03-10T10:52:31.710Z,12.06
2023-03-10T10:55:27.788Z,12.06
2023-03-10T10:58:14.020Z,12.03
2023-03-10T11:01:12.277Z,12.08
2023-03-10T11:03:48.644Z,12.17
2023-03-10T11:06:35.262Z,12.31
2023-03-10T11:09:18.210Z,12.45
2023-03-10T11:12:02.082Z,12.56
2023-03-10T11:15:01.527Z,12.60
2023-03-10T11:17:59.335Z,12.68
2023-03-10T11:20:48.897Z,12.81
2023-03-10T11:23:37.741Z,12.92
2023-03-10T11:26:34.874Z,13.02
2023-03-10T11:29:34.796Z,13.12
2023-03-10T11:32:35.903Z,13.19
2023-03-10T11:35:38.419Z,13.21
2023-03-10T11:38:41.153Z,13.26
2023-03-10T11:41:27.295Z,13.34
2023-03-10T11:44:09.447Z,13.38
2023-03-10T11:46:56.519Z,13.36
2023-03-10T11:49:40.321Z,13.27
2023-03-10T11:52:25.035Z,13.21
2023-03-10T11:55:16.284Z,13.25
2023-03-10T11:58:05.147Z,13.33
2023-03-10T12:00:52.471Z,13.41
2023-03-10T12:04:04.091Z,13.46
2023-03-10T12:06:52.247Z,13.46
2023-03-10T12:09:45.886Z,13.42
2023-03-10T12:12:34.694Z,13.38
2023-03-10T12:15:15.733Z,13.42
2023-03-10T12:17:46.870Z,13.45
2023-03-10T12:20:19.959Z,13.45
2023-03-10T12:22:50.506Z,13.43
2023-03-10T12:25:32.299Z,13.42
2023-03-10T12:28:16.094Z,13.40
2023-03-10T12:31:02.563Z,13.36
2023-03-10T12:33:34.064Z,13.31
2023-03-10T12:36:34.481Z,13.30
2023-03-10T12:39:30.859Z,13.26
2023-03-10T12:42:26.520Z,13.21
2023-03-10T12:45:14.121Z,13.18
2023-03-10T12:48:01.997Z,13.18
2023-03-10T12:50:49.836Z,13.17
2023-03-10T12:53:37.417Z,13.15
2023-03-10T12:56:11.892Z,13.15
2023-03-10T12:58:52.734Z,13.19
2023-03-10T13:01:31.297Z,13.19
2023-03-10T13:04:16.305Z,13.16
2023-03-10T13:06:47.581Z,13.14
2023-03-10T13:09:47.159Z,13.15
2023-03-10T13:12:42.604Z,13.10
2023-03-10T13:15:25.016Z,13.10
2023-03-10T13:18:20.885Z,13.16
2023-03-10T13:20:51.966Z,13.23
2023-03-10T13:23:36.450Z,13.32
2023-03-10T13:26:19.620Z,13.39
2023-03-10T13:29:03.265Z,13.45
2023-03-10T13:31:35.529Z,13.50
2023-03-10T13:34:21.705Z,13.56
2023-03-10T13:36:50.394Z,13.61
2023-03-10T13:39:27.272Z,13.65
2023-03-10T13:42:01.675Z,13.62
2023-03-10T13:44:49.757Z,13.57
2023-03-10T13:47:26.586Z,13.58
2023-03-10T13:49:59.598Z,13.63
2023-03-10T13:52:32.699Z,13.67
2023-03-10T13:55:17.088Z,13.70
2023-03-10T13:57:50.069Z,13.70
2023-03-10T14:00:22.731Z,13.72
2023-03-10T14:02:57.245Z,13.72
2023-03-10T14:05:45.438Z,13.69
2023-03-10T14:08:29.467Z,13.62
2023-03-10T14:11:41.364Z,13.55
2023-03-10T14:14:11.602Z,13.48
2023-03-10T14:16:50.872Z,13.46
2023-03-10T14:19:45.159Z,13.45
2023-03-10T14:22:40.172Z,13.40
2023-03-10T14:25:20.133Z,13.40
2023-03-10T14:27:55.513Z,13.37
2023-03-10T14:30:29.745Z,13.35
2023-03-10T14:33:00.825Z,13.35
2023-03-10T14:35:30.111Z,13.34
2023-03-10T14:38:02.272Z,13.28
2023-03-10T14:40:32.462Z,13.26
2023-03-10T14:43:02.577Z,13.20
2023-03-10T14:45:37.919Z,13.19
2023-03-10T14:48:15.193Z,13.17
2023-03-10T14:50:53.728Z,13.16
2023-03-10T14:53:27.593Z,13.14
2023-03-10T14:56:05.338Z,13.14
2023-03-10T14:58:50.641Z,13.15
2023-03-10T15:01:22.495Z,13.14
2023-03-10T15:03:56.648Z,13.17
2023-03-10T15:06:32.109Z,13.16
2023-03-10T15:09:07.538Z,13.16
2023-03-10T15:11:37.847Z,13.14
2023-03-10T15:14:21.098Z,13.13
2023-03-10T15:16:58.663Z,13.07
2023-03-10T15:19:30.544Z,13.01
2023-03-10T15:22:01.636Z,12.87
2023-03-10T15:24:34.870Z,12.83
2023-03-10T15:27:13.717Z,12.80
2023-03-10T15:29:46.892Z,12.78
2023-03-10T15:32:15.608Z,12.79
2023-03-10T15:34:48.044Z,12.83
2023-03-10T15:37:19.638Z,12.82
2023-03-10T15:39:53.456Z,12.78
2023-03-10T15:42:36.313Z,12.73
2023-03-10T15:45:08.463Z,12.69
2023-03-10T15:47:41.991Z,12.68
2023-03-10T15:50:13.187Z,12.65
2023-03-10T15:52:58.799Z,12.61
2023-03-10T15:55:36.332Z,12.56
2023-03-10T15:58:11.999Z,12.54
2023-03-10T16:00:44.082Z,12.55
2023-03-10T16:03:18.262Z,12.54
2023-03-10T16:05:50.569Z,12.50
2023-03-10T16:08:30.157Z,12.44
2023-03-10T16:11:01.700Z,12.39
2023-03-10T16:13:47.960Z,12.34
2023-03-10T16:16:22.750Z,12.28
2023-03-10T16:19:11.157Z,12.26
2023-03-10T16:21:49.501Z,12.23
2023-03-10T16:24:25.423Z,12.16
2023-03-10T16:27:02.697Z,12.12
2023-03-10T16:29:41.128Z,12.07
2023-03-10T16:32:14.820Z,12.02
2023-03-10T16:34:47.717Z,11.97
2023-03-10T16:37:26.932Z,11.89
2023-03-10T16:39:57.162Z,11.84
2023-03-10T16:42:39.994Z,11.80
2023-03-10T16:45:37.674Z,11.74
2023-03-10T16:48:32.978Z,11.68
2023-03-10T16:51:29.249Z,11.66
2023-03-10T16:54:30.565Z,11.63
2023-03-10T17:00:35.004Z,11.53
2023-03-10T17:03:48.791Z,11.46
2023-03-10T17:10:13.750Z,11.29
2023-03-10T17:12:43.925Z,11.25
2023-03-10T17:18:13.539Z,11.18
2023-03-10T17:20:52.998Z,11.14
2023-03-10T17:23:24.828Z,11.10
2023-03-10T17:25:54.557Z,11.05
2023-03-10T17:28:30.748Z,11.00
2023-03-10T17:31:12.037Z,10.96
2023-03-10T17:33:43.670Z,10.92
2023-03-10T17:36:15.522Z,10.81
2023-03-10T17:38:45.149Z,10.78
2023-03-10T17:41:16.510Z,10.73
2023-03-10T17:43:48.511Z,10.60
2023-03-10T17:46:26.917Z,10.56
2023-03-10T17:49:09.365Z,10.54
2023-03-10T17:51:44.053Z,10.55
2023-03-10T17:54:19.843Z,10.52
2023-03-10T17:56:57.272Z,10.51
2023-03-10T17:59:33.165Z,10.46
2023-03-10T18:02:05.634Z,10.43
2023-03-10T18:05:05.076Z,10.41
2023-03-10T18:07:33.975Z,10.35
2023-03-10T18:10:12.753Z,10.34
2023-03-10T18:12:44.905Z,10.29
2023-03-10T18:15:26.147Z,10.24
2023-03-10T18:18:04.343Z,10.18
2023-03-10T18:20:36.424Z,10.14
2023-03-10T18:23:08.420Z,10.10
2023-03-10T18:25:45.872Z,10.07
2023-03-10T18:28:23.167Z,10.05
2023-03-10T18:30:57.561Z,10.01
2023-03-10T18:33:31.901Z,9.99
2023-03-10T18:36:14.418Z,10.02
2023-03-10T18:38:56.829Z,10.01
2023-03-10T18:41:34.080Z,10.01
2023-03-10T18:44:08.995Z,10.01
2023-03-10T18:46:38.699Z,10.00
2023-03-10T18:49:13.509Z,9.98
2023-03-10T18:51:42.636Z,9.97
2023-03-10T18:54:11.651Z,9.93
2023-03-10T18:56:45.564Z,9.92
2023-03-10T18:59:22.934Z,9.83
2023-03-10T19:01:52.439Z,9.83
2023-03-10T19:04:27.298Z,9.83
2023-03-10T19:07:19.630Z,9.81
2023-03-10T19:09:56.697Z,9.72
2023-03-10T19:12:29.900Z,9.65
2023-03-10T19:15:07.502Z,9.60
2023-03-10T19:17:39.425Z,9.58
2023-03-10T19:20:12.745Z,9.57
2023-03-10T19:22:51.094Z,9.60
2023-03-10T19:25:23.185Z,9.64
2023-03-10T19:27:52.455Z,9.66
2023-03-10T19:30:22.119Z,9.69
2023-03-10T19:32:55.519Z,9.74
2023-03-10T19:35:34.087Z,9.78
2023-03-10T19:38:13.925Z,9.81
2023-03-10T19:40:49.786Z,9.84
2023-03-10T19:43:19.165Z,9.88
2023-03-10T19:46:20.775Z,9.91
2023-03-10T19:48:54.019Z,9.92
2023-03-10T19:51:26.188Z,9.96
2023-03-10T19:53:57.198Z,9.95
2023-03-10T19:56:26.390Z,9.96
2023-03-10T19:58:56.096Z,9.97
2023-03-10T20:01:27.391Z,10.00
2023-03-10T20:04:02.214Z,10.01
2023-03-10T20:06:31.257Z,9.98
2023-03-10T20:09:11.824Z,9.97
2023-03-10T20:11:41.660Z,9.96
2023-03-10T20:14:24.534Z,9.96
2023-03-10T20:17:01.543Z,9.95
2023-03-10T20:19:31.944Z,9.93
2023-03-10T20:22:13.977Z,9.92
2023-03-10T20:24:46.873Z,9.89
2023-03-10T20:27:18.356Z,9.89
2023-03-10T20:30:37.052Z,9.83
2023-03-10T20:33:23.363Z,9.74
2023-03-10T20:35:52.372Z,9.75
2023-03-10T20:38:26.674Z,9.80
2023-03-10T20:41:02.622Z,9.82
2023-03-10T20:43:43.629Z,9.84
2023-03-10T20:46:26.746Z,9.80
2023-03-10T20:52:17.384Z,9.71
2023-03-10T20:55:02.861Z,9.64
2023-03-10T20:57:38.360Z,9.59
2023-03-10T21:00:13.535Z,9.49
2023-03-10T21:02:54.740Z,9.43
2023-03-10T21:05:28.107Z,9.42
2023-03-10T21:08:02.818Z,9.42
2023-03-10T21:10:41.873Z,9.41
2023-03-10T21:13:51.123Z,9.40
2023-03-10T21:16:32.388Z,9.38
2023-03-10T21:19:08.152Z,9.42
2023-03-10T21:21:48.979Z,9.45
2023-03-10T21:24:28.494Z,9.45
2023-03-10T21:27:02.733Z,9.45
2023-03-10T21:29:34.634Z,9.47
2023-03-10T21:32:06.048Z,9.48
2023-03-10T21:34:35.659Z,9.50
2023-03-10T21:37:27.453Z,9.51
2023-03-10T21:40:13.080Z,9.50
2023-03-10T21:42:54.278Z,9.46
2023-03-10T21:45:40.955Z,9.43
2023-03-10T21:48:23.685Z,9.38
2023-03-10T21:51:11.524Z,9.36
2023-03-10T21:53:58.944Z,9.32
2023-03-10T21:56:36.931Z,9.29
2023-03-10T21:59:16.726Z,9.24
2023-03-10T22:02:10.420Z,9.18
2023-03-10T22:05:01.985Z,9.09
2023-03-10T22:07:54.201Z,9.02
2023-03-10T22:10:41.924Z,8.89
2023-03-10T22:13:17.656Z,8.78
2023-03-10T22:15:54.679Z,8.70
2023-03-10T22:18:29.862Z,8.62
2023-03-10T22:21:03.954Z,8.52
2023-03-10T22:23:44.578Z,8.43
2023-03-10T22:26:38.534Z,8.36
2023-03-10T22:29:11.535Z,8.26
2023-03-10T22:31:51.584Z,8.20
2023-03-10T22:34:35.434Z,8.15
2023-03-10T22:37:16.837Z,8.12
2023-03-10T22:39:55.461Z,8.08
2023-03-10T22:42:25.088Z,8.08
2023-03-10T22:45:03.570Z,8.05
2023-03-10T22:47:42.778Z,8.02
2023-03-10T22:50:45.678Z,7.99
2023-03-10T22:53:23.078Z,7.97
2023-03-10T22:55:51.589Z,8.00
2023-03-10T22:58:30.222Z,8.04
2023-03-10T23:01:04.430Z,8.05
2023-03-10T23:03:34.371Z,8.06
2023-03-10T23:06:13.304Z,8.07
2023-03-10T23:08:43.639Z,8.09
2023-03-10T23:11:15.169Z,8.06
2023-03-10T23:13:49.653Z,8.05
2023-03-10T23:16:19.442Z,8.09
2023-03-10T23:18:48.542Z,8.10
2023-03-10T23:21:22.385Z,8.11
2023-03-10T23:23:50.796Z,8.01
2023-03-10T23:26:23.952Z,7.98
2023-03-10T23:28:55.190Z,7.95
2023-03-10T23:31:23.982Z,7.93
2023-03-10T23:33:52.761Z,7.89
2023-03-10T23:36:21.190Z,7.86
2023-03-10T23:38:49.944Z,7.82
2023-03-10T23:41:18.619Z,7.77
2023-03-10T23:43:47.511Z,7.74
2023-03-10T23:46:16.297Z,7.70
2023-03-10T23:48:45.277Z,7.68
2023-03-10T23:51:16.874Z,7.66
2023-03-10T23:53:48.329Z,7.61
2023-03-10T23:56:16.844Z,7.59
2023-03-10T23:58:48.461Z,7.56
